No particular awareness of the weather is required.    There are no Weather-warnings


Meteo18 Weather Cam more information Meteo18 Weather Cam


Thunder radar more information blitzortung!


Rain radar more information rain snow radar


Visit our other weather sites:

Template documentation
and downloads

And another site



Weather Underground History page Text

Daily Summary for June 1, 2017 Units:  English    Metric   Both
« Previous Day
Next Day »
Daily Weekly Monthly Yearly Custom
  High: Low: Average:
Temperature: 81.7 °F 57.4 °F 69.4 °F
Dew Point: 64.2 °F 54.3 °F 59.5 °F
Humidity: 90 % 49 % 72 %
Wind Speed: 7 mph 0 mph 1 mph
Wind Gust: 10 mph - -
Wind:- - ESE
Pressure: 30.2 in 30.1 in -
Precipitation: 0 in    
Historical Graphs
 
 
Tabular Data for June 1, 2017
Time Temperature Dew Point Pressure Wind Wind Speed Wind Gust Humidity Rainfall Rate (Hourly)
00:02 63.1 °F 58.3 °F 30.2 in NNE 1 mph 2 mph 84 % 0 in
00:07 63 °F 58.1 °F 30.2 in NNE 1 mph 2 mph 84 % 0 in
00:12 62.8 °F 57.9 °F 30.2 in Calm   2 mph 84 % 0 in
00:17 62.8 °F 57.9 °F 30.2 in Calm   2 mph 84 % 0 in
00:22 62.8 °F 57.9 °F 30.2 in Calm   2 mph 84 % 0 in
00:32 62.8 °F 57.9 °F 30.2 in Calm   2 mph 84 % 0 in
00:37 62.8 °F 57.9 °F 30.2 in Calm   2 mph 84 % 0 in
00:42 62.8 °F 57.6 °F 30.2 in Calm   2 mph 83 % 0 in
00:52 62.8 °F 57.6 °F 30.2 in Calm   1 mph 83 % 0 in
00:57 62.6 °F 57.4 °F 30.2 in Calm   1 mph 83 % 0 in
01:02 62.4 °F 57.2 °F 30.2 in Calm   1 mph 83 % 0 in
01:12 62.4 °F 57.2 °F 30.2 in Calm     83 % 0 in
01:17 62.1 °F 56.8 °F 30.2 in Calm     83 % 0 in
01:22 62.1 °F 56.8 °F 30.2 in Calm   2 mph 83 % 0 in
01:27 61.9 °F 56.7 °F 30.2 in Calm   2 mph 83 % 0 in
01:32 61.9 °F 56.7 °F 30.2 in Calm   2 mph 83 % 0 in
01:42 61.5 °F 56.7 °F 30.2 in NW 1 mph 1 mph 84 % 0 in
01:47 61.3 °F 56.5 °F 30.2 in Calm   3 mph 84 % 0 in
01:52 61.3 °F 56.5 °F 30.2 in Calm   3 mph 84 % 0 in
01:57 61.3 °F 56.5 °F 30.2 in Calm   3 mph 84 % 0 in
02:02 61.2 °F 56.7 °F 30.2 in Calm   3 mph 85 % 0 in
02:07 61.2 °F 56.3 °F 30.2 in Calm   1 mph 84 % 0 in
02:12 60.8 °F 56.3 °F 30.2 in Calm   1 mph 85 % 0 in
02:17 60.6 °F 56.5 °F 30.2 in Calm     86 % 0 in
02:22 60.3 °F 56.3 °F 30.2 in Calm     87 % 0 in
02:32 60.8 °F 56.7 °F 30.2 in Calm     86 % 0 in
02:42 61 °F 56.5 °F 30.2 in Calm     85 % 0 in
02:47 60.8 °F 56.3 °F 30.2 in Calm     85 % 0 in
02:52 60.6 °F 56.5 °F 30.2 in Calm     86 % 0 in
02:57 60.1 °F 56.1 °F 30.2 in Calm     87 % 0 in
03:02 60.1 °F 56.1 °F 30.2 in Calm     87 % 0 in
03:12 60.3 °F 56.3 °F 30.2 in Calm     87 % 0 in
03:17 60.1 °F 56.1 °F 30.2 in Calm     87 % 0 in
03:22 59.7 °F 55.8 °F 30.2 in Calm     87 % 0 in
03:32 59.5 °F 55.9 °F 30.2 in Calm   1 mph 88 % 0 in
03:37 59.5 °F 55.9 °F 30.2 in Calm   1 mph 88 % 0 in
03:42 59.4 °F 55.4 °F 30.2 in Calm   2 mph 87 % 0 in
03:52 59.2 °F 55.6 °F 30.2 in NNE 1 mph 2 mph 88 % 0 in
03:57 58.8 °F 55.2 °F 30.2 in North 1 mph 2 mph 88 % 0 in
04:02 58.8 °F 55.2 °F 30.2 in NNE 1 mph 3 mph 88 % 0 in
04:12 58.8 °F 55.2 °F 30.2 in Calm   3 mph 88 % 0 in
04:17 58.6 °F 55 °F 30.2 in Calm   3 mph 88 % 0 in
04:22 58.5 °F 55.2 °F 30.2 in Calm   3 mph 89 % 0 in
04:32 58.6 °F 55 °F 30.2 in North 1 mph 2 mph 88 % 0 in
04:37 58.6 °F 55 °F 30.2 in Calm   2 mph 88 % 0 in
04:42 58.6 °F 55 °F 30.2 in NNE 2 mph 2 mph 88 % 0 in
04:47 58.6 °F 55 °F 30.2 in Calm   2 mph 88 % 0 in
04:52 58.5 °F 54.9 °F 30.2 in Calm   2 mph 88 % 0 in
04:57 58.3 °F 54.7 °F 30.2 in Calm   2 mph 88 % 0 in
05:02 58.3 °F 55 °F 30.2 in Calm   2 mph 89 % 0 in
05:07 58.3 °F 55 °F 30.2 in Calm     89 % 0 in
05:12 58.5 °F 55.2 °F 30.2 in Calm     89 % 0 in
05:17 58.1 °F 54.9 °F 30.1 in WNW 1 mph 1 mph 89 % 0 in
05:22 57.9 °F 55 °F 30.1 in WNW 1 mph 1 mph 90 % 0 in
05:27 58.3 °F 55 °F 30.1 in NW 1 mph 1 mph 89 % 0 in
05:32 58.3 °F 55 °F 30.1 in North 1 mph 1 mph 89 % 0 in
05:42 57.9 °F 54.7 °F 30.1 in Calm   1 mph 89 % 0 in
05:47 57.9 °F 54.7 °F 30.1 in North 1 mph 2 mph 89 % 0 in
05:52 57.7 °F 54.5 °F 30.1 in Calm   2 mph 89 % 0 in
05:57 57.7 °F 54.5 °F 30.2 in Calm   2 mph 89 % 0 in
06:02 57.6 °F 54.3 °F 30.2 in Calm   2 mph 89 % 0 in
06:12 57.4 °F 54.5 °F 30.2 in North 1 mph 2 mph 90 % 0 in
06:17 57.4 °F 54.5 °F 30.2 in Calm   2 mph 90 % 0 in
06:22 57.6 °F 54.7 °F 30.2 in Calm   2 mph 90 % 0 in
06:27 57.6 °F 54.7 °F 30.2 in NNW 1 mph 2 mph 90 % 0 in
06:32 57.7 °F 54.9 °F 30.2 in North 1 mph 1 mph 90 % 0 in
06:37 57.9 °F 55 °F 30.2 in Calm   1 mph 90 % 0 in
06:42 58.1 °F 54.9 °F 30.2 in Calm   2 mph 89 % 0 in
06:47 58.3 °F 55 °F 30.2 in North 2 mph 2 mph 89 % 0 in
06:52 58.3 °F 55 °F 30.2 in Calm   2 mph 89 % 0 in
06:57 58.8 °F 55.6 °F 30.2 in Calm   2 mph 89 % 0 in
07:02 59.4 °F 55.8 °F 30.2 in Calm   2 mph 88 % 0 in
07:07 59.7 °F 55.8 °F 30.2 in Calm   1 mph 87 % 0 in
07:12 60.4 °F 56.3 °F 30.2 in Calm   1 mph 86 % 0 in
07:17 61 °F 56.8 °F 30.2 in Calm   1 mph 86 % 0 in
07:22 61.5 °F 57 °F 30.2 in Calm   1 mph 85 % 0 in
07:27 62.8 °F 57.9 °F 30.2 in Calm   1 mph 84 % 0 in
07:32 63.5 °F 57.9 °F 30.2 in Calm   1 mph 82 % 0 in
07:37 63.9 °F 58.3 °F 30.2 in Calm   1 mph 82 % 0 in
07:42 63.7 °F 58.5 °F 30.2 in NNE 1 mph 1 mph 83 % 0 in
07:47 63.3 °F 58.5 °F 30.2 in North 1 mph 1 mph 84 % 0 in
07:52 63.1 °F 58.3 °F 30.2 in NNE 2 mph 2 mph 84 % 0 in
07:57 63.1 °F 58.3 °F 30.2 in NNW 1 mph 2 mph 84 % 0 in
08:02 63 °F 57.7 °F 30.2 in Calm   2 mph 83 % 0 in
08:07 63.1 °F 57.6 °F 30.2 in North 1 mph 3 mph 82 % 0 in
08:12 63.7 °F 58.1 °F 30.2 in NNE 1 mph 3 mph 82 % 0 in
08:17 64 °F 58.1 °F 30.2 in NE 2 mph 2 mph 81 % 0 in
08:22 64.2 °F 57.9 °F 30.2 in ENE 1 mph 2 mph 80 % 0 in
08:27 64.6 °F 58.6 °F 30.2 in Calm   4 mph 81 % 0 in
08:32 65.1 °F 58.8 °F 30.2 in ENE 2 mph 4 mph 80 % 0 in
08:37 65.3 °F 58.6 °F 30.2 in ENE 1 mph 3 mph 79 % 0 in
08:42 65.5 °F 58.5 °F 30.2 in Calm   3 mph 78 % 0 in
08:47 66.4 °F 59.7 °F 30.2 in Calm   2 mph 79 % 0 in
08:57 68.4 °F 60.4 °F 30.2 in Calm   1 mph 76 % 0 in
09:02 68.7 °F 59.7 °F 30.2 in Calm   1 mph 73 % 0 in
09:07 68.5 °F 60.3 °F 30.2 in Calm   1 mph 75 % 0 in
09:12 68.5 °F 59.5 °F 30.2 in Calm   1 mph 73 % 0 in
09:22 67.8 °F 59.5 °F 30.2 in ENE 2 mph 2 mph 75 % 0 in
09:27 68 °F 60.4 °F 30.2 in Calm   3 mph 77 % 0 in
09:32 69.1 °F 60.8 °F 30.2 in East 1 mph 3 mph 75 % 0 in
09:37 69.6 °F 60.6 °F 30.2 in East 1 mph 2 mph 73 % 0 in
09:42 69.8 °F 60.4 °F 30.2 in East 1 mph 2 mph 72 % 0 in
09:47 68.7 °F 60.1 °F 30.2 in Calm   4 mph 74 % 0 in
09:52 68.9 °F 60.6 °F 30.2 in Calm   4 mph 75 % 0 in
09:57 69.6 °F 61.3 °F 30.2 in Calm   4 mph 75 % 0 in
10:02 69.6 °F 61 °F 30.2 in ENE 2 mph 4 mph 74 % 0 in
10:07 69.3 °F 61 °F 30.2 in ENE 2 mph 4 mph 75 % 0 in
10:12 69.3 °F 61 °F 30.2 in East 1 mph 4 mph 75 % 0 in
10:17 69.6 °F 61.3 °F 30.2 in SE 2 mph 4 mph 75 % 0 in
10:22 70.2 °F 60.6 °F 30.2 in Calm   4 mph 72 % 0 in
10:32 70.9 °F 61.3 °F 30.2 in East 2 mph 4 mph 72 % 0 in
10:37 70.9 °F 61.9 °F 30.2 in East 1 mph 4 mph 73 % 0 in
10:42 71.2 °F 61.3 °F 30.2 in Calm   4 mph 71 % 0 in
10:47 71.6 °F 61.3 °F 30.2 in ENE 1 mph 3 mph 70 % 0 in
10:57 72.7 °F 62.2 °F 30.2 in Calm   4 mph 70 % 0 in
11:02 72.7 °F 61.5 °F 30.2 in Calm   4 mph 68 % 0 in
11:12 73.4 °F 62.6 °F 30.2 in SW 3 mph 4 mph 69 % 0 in
11:17 73.2 °F 62.1 °F 30.2 in SSE 1 mph 4 mph 68 % 0 in
11:22 73.8 °F 63 °F 30.2 in East 2 mph 4 mph 69 % 0 in
11:32 73.9 °F 62.8 °F 30.2 in NE 1 mph 5 mph 68 % 0 in
11:37 73.8 °F 61.3 °F 30.2 in ENE 3 mph 5 mph 65 % 0 in
11:42 72.9 °F 60.8 °F 30.2 in NE 2 mph 5 mph 66 % 0 in
11:47 72.7 °F 60.6 °F 30.2 in ENE 1 mph 6 mph 66 % 0 in
11:52 72.7 °F 61.2 °F 30.2 in ENE 1 mph 6 mph 67 % 0 in
11:57 72.7 °F 61.5 °F 30.2 in NE 4 mph 6 mph 68 % 0 in
12:02 72.7 °F 61.5 °F 30.2 in East 5 mph 6 mph 68 % 0 in
12:07 72.7 °F 61.5 °F 30.2 in ENE 2 mph 6 mph 68 % 0 in
12:12 72.5 °F 61.3 °F 30.2 in ENE 1 mph 6 mph 68 % 0 in
12:17 72.3 °F 58.6 °F 30.2 in NE 7 mph 7 mph 62 % 0 in
12:22 72.3 °F 59.5 °F 30.2 in East 4 mph 7 mph 64 % 0 in
12:27 72.7 °F 60.3 °F 30.2 in NNW 3 mph 9 mph 65 % 0 in
12:32 72.7 °F 60.6 °F 30.2 in East 3 mph 9 mph 66 % 0 in
12:37 73.2 °F 61.5 °F 30.2 in ENE 4 mph 9 mph 67 % 0 in
12:42 73.8 °F 61.3 °F 30.2 in NE 3 mph 7 mph 65 % 0 in
12:47 73.8 °F 61.3 °F 30.2 in ENE 3 mph 8 mph 65 % 0 in
12:52 73.9 °F 61.3 °F 30.2 in ENE 4 mph 8 mph 65 % 0 in
13:02 74.3 °F 60.8 °F 30.2 in ENE 3 mph 10 mph 63 % 0 in
13:07 74.5 °F 60.1 °F 30.2 in ENE 2 mph 10 mph 61 % 0 in
13:12 75 °F 62.1 °F 30.2 in East 4 mph 10 mph 64 % 0 in
13:17 75 °F 61.2 °F 30.2 in NE 3 mph 9 mph 62 % 0 in
13:22 75 °F 61.5 °F 30.2 in East 4 mph 10 mph 63 % 0 in
13:27 75.6 °F 61.7 °F 30.2 in ENE 3 mph 10 mph 62 % 0 in
13:32 75.4 °F 60.4 °F 30.2 in East 7 mph 8 mph 60 % 0 in
13:42 75 °F 60.3 °F 30.2 in East 5 mph 10 mph 60 % 0 in
13:47 75.6 °F 62.6 °F 30.2 in East 7 mph 10 mph 64 % 0 in
13:52 75.9 °F 61 °F 30.2 in East 2 mph 9 mph 60 % 0 in
14:02 76.3 °F 61.3 °F 30.2 in Calm   9 mph 60 % 0 in
14:12 77.5 °F 62.1 °F 30.2 in ESE 4 mph 4 mph 59 % 0 in
14:17 78.1 °F 63.1 °F 30.1 in ENE 1 mph 5 mph 60 % 0 in
14:22 78.1 °F 62.1 °F 30.1 in Calm   5 mph 58 % 0 in
14:27 77.5 °F 62.1 °F 30.1 in East 2 mph 5 mph 59 % 0 in
14:32 77.2 °F 62.6 °F 30.1 in ENE 6 mph 8 mph 61 % 0 in
14:37 76.5 °F 62.1 °F 30.1 in NNE 3 mph 8 mph 61 % 0 in
14:47 76.6 °F 63.1 °F 30.1 in ENE 5 mph 8 mph 63 % 0 in
14:52 76.6 °F 62.2 °F 30.1 in NE 3 mph 8 mph 61 % 0 in
14:57 77.2 °F 63.1 °F 30.1 in SW 4 mph 8 mph 62 % 0 in
15:07 78.8 °F 62.8 °F 30.1 in ESE 1 mph 7 mph 58 % 0 in
15:12 79 °F 62.4 °F 30.1 in SSW 2 mph 6 mph 57 % 0 in
15:17 78.4 °F 63 °F 30.1 in East 4 mph 7 mph 59 % 0 in
15:22 79 °F 62.4 °F 30.1 in NNE 3 mph 7 mph 57 % 0 in
15:27 78.8 °F 64.2 °F 30.1 in SE 2 mph 6 mph 61 % 0 in
15:32 79.5 °F 63.5 °F 30.1 in East 2 mph 6 mph 58 % 0 in
15:37 79.3 °F 62.2 °F 30.1 in ENE 3 mph 6 mph 56 % 0 in
15:42 79.5 °F 63 °F 30.1 in SSW 1 mph 6 mph 57 % 0 in
15:47 79.2 °F 62.1 °F 30.1 in SSW 2 mph 5 mph 56 % 0 in
15:52 79.2 °F 63.1 °F 30.1 in SE 1 mph 4 mph 58 % 0 in
15:57 79 °F 61.9 °F 30.1 in Calm   4 mph 56 % 0 in
16:02 79.5 °F 61.3 °F 30.1 in East 3 mph 4 mph 54 % 0 in
16:12 78.8 °F 61.3 °F 30.1 in East 3 mph 5 mph 55 % 0 in
16:17 79.3 °F 60.8 °F 30.1 in SE 4 mph 5 mph 53 % 0 in
16:22 80.2 °F 61 °F 30.1 in SW 5 mph 5 mph 52 % 0 in
16:27 79.9 °F 60.1 °F 30.1 in Calm   5 mph 51 % 0 in
16:32 79.9 °F 60.6 °F 30.1 in West 2 mph 5 mph 52 % 0 in
16:42 79.7 °F 60.4 °F 30.1 in SSW 4 mph 7 mph 52 % 0 in
16:47 79 °F 60.4 °F 30.1 in SE 1 mph 7 mph 53 % 0 in
16:52 78.4 °F 61.5 °F 30.1 in SW 2 mph 7 mph 56 % 0 in
16:57 78.6 °F 61.2 °F 30.1 in SSW 2 mph 5 mph 55 % 0 in
17:02 79.2 °F 62.6 °F 30.1 in West 3 mph 4 mph 57 % 0 in
17:07 79.2 °F 61.5 °F 30.1 in Calm   5 mph 55 % 0 in
17:12 79 °F 61.5 °F 30.1 in WNW 1 mph 5 mph 55 % 0 in
17:22 80.1 °F 62.4 °F 30.1 in Calm   5 mph 55 % 0 in
17:32 81.1 °F 61.9 °F 30.1 in Calm   7 mph 52 % 0 in
17:37 81.3 °F 62.1 °F 30.1 in East 2 mph 7 mph 52 % 0 in
17:47 80.2 °F 61.5 °F 30.1 in SSW 1 mph 5 mph 53 % 0 in
17:52 80.8 °F 59.9 °F 30.1 in SW 2 mph 6 mph 49 % 0 in
17:57 81.1 °F 61.3 °F 30.1 in WSW 3 mph 6 mph 51 % 0 in
18:02 81.3 °F 60.3 °F 30.1 in South 2 mph 4 mph 49 % 0 in
18:07 81.7 °F 61.2 °F 30.1 in Calm   6 mph 50 % 0 in
18:12 81.7 °F 60.6 °F 30.1 in Calm   6 mph 49 % 0 in
18:22 80.6 °F 61.3 °F 30.1 in Calm   3 mph 52 % 0 in
18:32 81.3 °F 61 °F 30.1 in Calm   4 mph 50 % 0 in
18:42 80.8 °F 62.1 °F 30.1 in East 3 mph 4 mph 53 % 0 in
18:47 80.2 °F 63.1 °F 30.1 in Calm   5 mph 56 % 0 in
18:52 80.8 °F 61.5 °F 30.1 in SSE 2 mph 5 mph 52 % 0 in
18:57 80.4 °F 61.2 °F 30.1 in Calm   4 mph 52 % 0 in
19:02 79.7 °F 61 °F 30.1 in East 1 mph 4 mph 53 % 0 in
19:12 79 °F 61.5 °F 30.1 in ESE 1 mph 4 mph 55 % 0 in
19:17 79.3 °F 62.2 °F 30.1 in Calm   3 mph 56 % 0 in
19:22 79.3 °F 62.2 °F 30.1 in Calm   3 mph 56 % 0 in
19:32 78.1 °F 61.5 °F 30.1 in Calm   1 mph 57 % 0 in
19:42 78.6 °F 61.5 °F 30.1 in Calm     56 % 0 in
19:47 78.6 °F 61.2 °F 30.1 in Calm     55 % 0 in
19:52 78.8 °F 62.8 °F 30.1 in Calm     58 % 0 in
19:57 79.2 °F 62.6 °F 30.1 in Calm     57 % 0 in
20:02 79.3 °F 62.8 °F 30.1 in Calm   2 mph 57 % 0 in
20:12 80.1 °F 62.4 °F 30.1 in Calm   2 mph 55 % 0 in
20:17 80.2 °F 61.5 °F 30.1 in Calm     53 % 0 in
20:22 80.4 °F 61.7 °F 30.1 in Calm     53 % 0 in
20:32 80.8 °F 61 °F 30.1 in Calm   2 mph 51 % 0 in
20:42 81 °F 60.6 °F 30.1 in Calm   1 mph 50 % 0 in
20:47 81.5 °F 63.3 °F 30.1 in Calm   1 mph 54 % 0 in
20:52 81.7 °F 63.5 °F 30.1 in Calm   1 mph 54 % 0 in
20:57 81.3 °F 63.1 °F 30.1 in Calm     54 % 0 in
21:02 80.2 °F 62.1 °F 30.1 in Calm     54 % 0 in
21:07 79.2 °F 63.1 °F 30.1 in Calm     58 % 0 in
21:12 78.3 °F 62.2 °F 30.1 in Calm     58 % 0 in
21:17 76.3 °F 62.2 °F 30.1 in Calm     62 % 0 in
21:22 74.7 °F 61.2 °F 30.1 in Calm     63 % 0 in
21:32 72.9 °F 61.3 °F 30.1 in Calm     67 % 0 in
21:37 72.1 °F 61 °F 30.1 in Calm     68 % 0 in
21:42 71.4 °F 60.8 °F 30.1 in Calm     69 % 0 in
21:47 70.9 °F 61 °F 30.1 in Calm     71 % 0 in
21:52 70.2 °F 60.6 °F 30.1 in Calm     72 % 0 in
21:57 69.6 °F 61 °F 30.1 in Calm     74 % 0 in
22:02 69.3 °F 61.3 °F 30.1 in Calm     76 % 0 in
22:12 68.7 °F 60.8 °F 30.1 in Calm     76 % 0 in
22:17 68.5 °F 61 °F 30.1 in Calm     77 % 0 in
22:22 68.4 °F 60.8 °F 30.1 in Calm     77 % 0 in
22:27 68 °F 60.4 °F 30.1 in Calm     77 % 0 in
22:32 68 °F 60.4 °F 30.1 in Calm     77 % 0 in
22:42 67.8 °F 60.6 °F 30.1 in Calm     78 % 0 in
22:47 67.6 °F 61 °F 30.1 in Calm     79 % 0 in
22:52 67.3 °F 61 °F 30.1 in Calm     80 % 0 in
22:57 66.9 °F 60.6 °F 30.1 in Calm     80 % 0 in
23:02 66.6 °F 60.3 °F 30.1 in Calm     80 % 0 in
23:07 66.6 °F 60.3 °F 30.1 in Calm     80 % 0 in
23:12 66.6 °F 60.3 °F 30.1 in Calm     80 % 0 in
23:17 66.6 °F 60.3 °F 30.1 in Calm     80 % 0 in
23:22 66.2 °F 60.3 °F 30.1 in Calm     81 % 0 in
23:27 65.7 °F 60.1 °F 30.1 in WNW 1 mph 1 mph 82 % 0 in
23:32 65.5 °F 59.9 °F 30.1 in Calm   2 mph 82 % 0 in
23:42 65.7 °F 60.1 °F 30.1 in North 2 mph 2 mph 82 % 0 in
23:47 65.7 °F 60.1 °F 30.1 in Calm   2 mph 82 % 0 in
23:52 65.5 °F 59.9 °F 30.1 in North 1 mph 2 mph 82 % 0 in
Meteo18
Compliments of Weather Underground - 4 mb

Script developed by  Jim McMurry - jmcmurry@mwt.net Adapted for the template by  Wim van der Kuil - Leuven-Template.eu

You find our weather info also at:

European Weather Network

Weather Underground

Equipment we use:

Weather-station
Davis Vue

Weather-program
Meteohub

Weather-server
Raspberry PI 2 B+

Provider
1 and 1

Davis Vue

Meteohub

Raspberry PI 2 B+

1 and 1